Time;durP1;ratioP1;P1;durP2;ratioP2;P2;SDS_P1;SDS_P2;PMS_P1;PMS_P2;Temp;Humidity;BMP_temperature;BMP_pressure;BME280_temperature;BME280_humidity;BME280_pressure;Samples;Min_cycle;Max_cycle;Signal;HPM_P1;HPM_P2
2021/01/24 00:05:26;;;;;;;23.83;10.88;;;;;;;3.79;100.00;97143.63;4066659;86;28581;-75
2021/01/24 00:11:28;;;;;;;22.60;10.50;;;;;;;3.64;100.00;97148.09;3981384;88;28633;-76
2021/01/24 00:17:31;;;;;;;19.73;9.08;;;;;;;3.50;100.00;97142.23;4060340;86;28602;-76
2021/01/24 00:23:33;;;;;;;20.82;8.78;;;;;;;3.53;100.00;97117.02;3983499;87;28641;-74
2021/01/24 00:29:35;;;;;;;20.23;9.65;;;;;;;3.53;100.00;97105.89;4138789;85;28553;-75
2021/01/24 00:35:38;;;;;;;19.55;9.78;;;;;;;3.48;100.00;97097.80;4057041;86;28619;-75
2021/01/24 00:41:40;;;;;;;21.82;10.93;;;;;;;3.34;100.00;97096.72;4140409;85;28543;-74
2021/01/24 00:47:42;;;;;;;20.55;9.95;;;;;;;3.26;100.00;97084.31;4125049;85;28596;-74
2021/01/24 00:53:44;;;;;;;23.67;11.45;;;;;;;3.08;100.00;97083.92;4155768;85;28629;-74
2021/01/24 00:59:47;;;;;;;22.10;10.43;;;;;;;2.95;100.00;97065.04;4131631;85;28657;-75
2021/01/24 01:05:49;;;;;;;24.23;10.50;;;;;;;2.90;100.00;97071.83;4076818;86;28620;-74
2021/01/24 01:11:51;;;;;;;19.50;8.98;;;;;;;2.91;100.00;97079.28;3996411;88;28614;-74
2021/01/24 01:17:53;;;;;;;24.63;10.80;;;;;;;2.79;100.00;97065.48;4062415;86;28564;-75
2021/01/24 01:23:55;;;;;;;23.32;11.15;;;;;;;3.10;100.00;97050.77;4109663;85;28581;-75
2021/01/24 01:29:57;;;;;;;23.62;10.68;;;;;;;2.87;100.00;97047.62;4123515;85;28544;-75
2021/01/24 01:36:00;;;;;;;28.47;12.03;;;;;;;2.64;100.00;97049.19;4126246;85;28560;-76
2021/01/24 01:42:04;;;;;;;25.82;12.18;;;;;;;2.82;100.00;97048.81;4138679;85;28599;-76
2021/01/24 01:48:07;;;;;;;18.30;9.03;;;;;;;2.80;100.00;97054.34;4146036;84;28587;-75
2021/01/24 01:54:10;;;;;;;17.67;8.33;;;;;;;2.55;100.00;97058.01;4103322;86;28585;-75
2021/01/24 02:00:13;;;;;;;22.55;10.40;;;;;;;2.59;100.00;97047.75;4136348;85;28557;-75
2021/01/24 02:06:38;;;;;;;27.02;11.63;;;;;;;2.84;100.00;97045.41;4135824;85;28543;-74
2021/01/24 02:12:57;;;;;;;23.98;10.63;;;;;;;2.85;100.00;97033.74;4141151;85;28591;-75
2021/01/24 02:19:04;;;;;;;24.52;11.12;;;;;;;2.74;100.00;97034.05;4133745;85;28644;-75
2021/01/24 02:25:17;;;;;;;19.62;10.03;;;;;;;2.70;100.00;97032.36;4126968;85;28581;-75
2021/01/24 02:31:21;;;;;;;21.73;10.48;;;;;;;2.72;100.00;97037.45;4146138;85;28639;-75
2021/01/24 02:37:24;;;;;;;25.50;11.35;;;;;;;2.64;100.00;97031.44;4120209;85;28583;-75
2021/01/24 02:43:27;;;;;;;22.62;10.82;;;;;;;2.85;100.00;97025.78;4038372;86;28721;-75
2021/01/24 02:49:31;;;;;;;28.92;13.78;;;;;;;2.93;100.00;97028.91;4070616;86;28593;-74
2021/01/24 02:55:33;;;;;;;24.05;12.07;;;;;;;3.31;100.00;97027.30;4089568;86;28594;-75
2021/01/24 03:01:35;;;;;;;27.37;12.55;;;;;;;2.92;100.00;97014.03;4144594;85;28553;-75
2021/01/24 03:07:38;;;;;;;28.32;13.80;;;;;;;2.94;100.00;97005.81;4147483;85;28612;-74
2021/01/24 03:13:46;;;;;;;22.52;11.33;;;;;;;3.01;100.00;97003.03;4053707;86;28560;-75
2021/01/24 03:19:49;;;;;;;26.97;12.18;;;;;;;2.97;100.00;97004.55;4019146;87;28710;-75
2021/01/24 03:25:53;;;;;;;25.57;12.13;;;;;;;3.08;100.00;96996.30;3999555;87;28566;-75
2021/01/24 03:31:55;;;;;;;31.80;13.55;;;;;;;2.75;100.00;96975.95;4060507;86;28681;-75
2021/01/24 03:37:58;;;;;;;31.35;14.85;;;;;;;2.76;100.00;96969.09;3997725;88;28564;-75
2021/01/24 03:44:00;;;;;;;34.10;15.58;;;;;;;2.81;100.00;96975.00;4051130;87;28560;-75
2021/01/24 03:50:05;;;;;;;34.92;16.73;;;;;;;2.71;100.00;96953.55;3967676;88;28596;-75
2021/01/24 03:56:07;;;;;;;35.20;16.97;;;;;;;2.82;100.00;96949.28;4007587;88;28571;-76
2021/01/24 04:02:09;;;;;;;25.75;13.30;;;;;;;2.89;100.00;96957.94;4048908;86;50799;-76
2021/01/24 04:08:13;;;;;;;28.15;13.32;;;;;;;2.92;100.00;96952.16;3984008;88;28623;-75
2021/01/24 04:14:15;;;;;;;31.50;14.68;;;;;;;2.67;100.00;96951.08;4068239;86;28658;-76
2021/01/24 04:20:18;;;;;;;36.77;15.72;;;;;;;2.70;100.00;96938.16;4148459;85;28586;-76
2021/01/24 04:26:20;;;;;;;33.42;15.45;;;;;;;2.63;100.00;96925.02;4126131;85;28655;-76
2021/01/24 04:32:22;;;;;;;30.27;14.83;;;;;;;2.85;100.00;96919.11;4143951;85;28554;-76
2021/01/24 04:38:24;;;;;;;25.82;12.65;;;;;;;2.85;100.00;96927.58;4153025;85;28593;-76
2021/01/24 04:44:27;;;;;;;32.05;15.23;;;;;;;2.77;100.00;96912.83;4141285;85;28599;-75
2021/01/24 04:50:30;;;;;;;33.63;17.27;;;;;;;2.75;100.00;96903.76;4044845;86;28607;-75
2021/01/24 04:56:36;;;;;;;35.38;16.60;;;;;;;2.90;100.00;96899.83;4110115;85;28616;-76
2021/01/24 05:02:39;;;;;;;43.13;20.40;;;;;;;2.91;100.00;96899.57;4138946;85;28606;-76
2021/01/24 05:08:46;;;;;;;42.05;20.88;;;;;;;2.68;100.00;96889.83;4027364;87;28619;-76
2021/01/24 05:14:49;;;;;;;37.33;18.92;;;;;;;2.76;100.00;96894.78;4056877;86;28658;-76
2021/01/24 05:20:52;;;;;;;35.33;17.17;;;;;;;2.86;100.00;96896.01;4044095;87;28607;-76
2021/01/24 05:26:54;;;;;;;37.73;19.02;;;;;;;2.84;100.00;96896.27;4075064;86;28568;-75
2021/01/24 05:32:59;;;;;;;41.73;20.00;;;;;;;2.85;100.00;96893.89;3983205;88;28617;-75
2021/01/24 05:39:03;;;;;;;41.25;21.25;;;;;;;2.83;100.00;96893.33;4132544;85;28565;-76
2021/01/24 05:45:17;;;;;;;40.55;20.72;;;;;;;2.86;100.00;96884.88;4160779;85;28939;-75
2021/01/24 05:51:20;;;;;;;40.45;20.95;;;;;;;2.59;100.00;96865.48;4123213;85;28579;-75
2021/01/24 05:57:24;;;;;;;35.68;18.65;;;;;;;2.55;100.00;96857.71;4144584;85;28592;-75
2021/01/24 06:03:27;;;;;;;32.53;16.05;;;;;;;2.54;100.00;96856.61;4111508;85;28575;-75
2021/01/24 06:09:29;;;;;;;32.63;17.20;;;;;;;2.67;100.00;96878.93;4128053;85;28640;-77
2021/01/24 06:15:35;;;;;;;32.95;17.82;;;;;;;2.61;100.00;96873.22;4120174;85;28611;-76
2021/01/24 06:21:45;;;;;;;36.55;17.10;;;;;;;2.46;100.00;96863.91;4144756;85;28615;-75
2021/01/24 06:28:12;;;;;;;32.85;18.20;;;;;;;2.50;100.00;96870.34;4124550;85;28545;-76
2021/01/24 06:34:14;;;;;;;34.18;18.77;;;;;;;2.48;100.00;96876.91;4144356;85;28580;-75
2021/01/24 06:40:23;;;;;;;35.15;17.62;;;;;;;2.33;100.00;96860.14;4123603;85;28639;-75
2021/01/24 06:46:35;;;;;;;32.70;16.40;;;;;;;2.40;100.00;96871.98;4114395;85;28575;-76
2021/01/24 06:52:37;;;;;;;37.17;18.42;;;;;;;2.33;100.00;96858.31;4138478;85;28683;-76
2021/01/24 06:58:50;;;;;;;37.03;18.37;;;;;;;2.49;100.00;96860.78;4125424;85;28571;-75
2021/01/24 07:05:22;;;;;;;31.85;17.67;;;;;;;2.44;100.00;96860.66;4147256;85;28589;-76
2021/01/24 07:11:50;;;;;;;34.13;17.10;;;;;;;2.41;100.00;96877.58;4125056;85;28620;-75
2021/01/24 07:17:55;;;;;;;37.95;17.62;;;;;;;2.43;100.00;96873.63;4058879;86;28552;-74
2021/01/24 07:23:58;;;;;;;35.25;17.62;;;;;;;2.40;100.00;96866.14;4134006;85;28565;-74
2021/01/24 07:30:00;;;;;;;33.63;16.82;;;;;;;2.45;100.00;96877.39;4146143;85;28549;-75
2021/01/24 07:36:04;;;;;;;34.80;17.05;;;;;;;2.54;100.00;96872.52;4116243;86;28573;-75
2021/01/24 07:42:07;;;;;;;34.85;17.42;;;;;;;2.48;100.00;96864.98;4116486;86;28672;-77
2021/01/24 07:48:12;;;;;;;31.97;16.30;;;;;;;2.36;100.00;96865.80;4057930;86;28588;-75
2021/01/24 07:54:18;;;;;;;31.20;15.65;;;;;;;2.58;100.00;96849.28;4037657;87;28630;-77
2021/01/24 08:00:21;;;;;;;30.53;15.83;;;;;;;2.65;100.00;96867.22;4124068;85;28608;-76
2021/01/24 08:06:25;;;;;;;35.85;16.95;;;;;;;2.79;100.00;96872.25;4133273;85;28619;-75
2021/01/24 08:12:27;;;;;;;31.95;16.40;;;;;;;2.91;100.00;96916.83;4125032;85;28623;-76
2021/01/24 08:18:32;;;;;;;30.32;15.18;;;;;;;3.11;100.00;96914.30;4116161;85;28580;-74
2021/01/24 08:24:34;;;;;;;29.95;15.03;;;;;;;3.14;100.00;96917.02;4067100;86;28595;-77
2021/01/24 08:30:40;;;;;;;29.85;15.70;;;;;;;3.12;100.00;96931.84;4044909;86;28591;-77
2021/01/24 08:36:44;;;;;;;30.30;14.80;;;;;;;3.06;100.00;96937.58;4127736;85;28554;-78
2021/01/24 08:42:50;;;;;;;29.95;15.80;;;;;;;2.98;100.00;96940.62;4134697;85;28604;-76
2021/01/24 08:49:08;;;;;;;32.45;15.63;;;;;;;3.04;100.00;96948.95;4050905;88;28557;-80
2021/01/24 08:55:11;;;;;;;32.40;18.27;;;;;;;3.13;100.00;96955.23;4003764;88;28567;-75
2021/01/24 09:01:13;;;;;;;34.73;17.25;;;;;;;3.26;100.00;96952.31;4049270;87;28580;-75
2021/01/24 09:07:17;;;;;;;34.90;17.02;;;;;;;3.35;100.00;96947.45;4123243;86;28525;-74
2021/01/24 09:13:22;;;;;;;35.68;17.00;;;;;;;3.55;100.00;96950.22;4125181;86;28617;-74
2021/01/24 09:19:23;;;;;;;33.48;17.42;;;;;;;3.35;100.00;96945.59;4124195;85;28549;-80
2021/01/24 09:25:26;;;;;;;34.85;16.75;;;;;;;3.52;100.00;96958.64;4144484;81;28574;-74
2021/01/24 09:31:28;;;;;;;31.50;15.30;;;;;;;3.61;100.00;96954.56;4105407;85;28594;-74
2021/01/24 09:37:30;;;;;;;26.17;12.85;;;;;;;3.54;100.00;96966.67;4073030;87;28596;-75
2021/01/24 09:43:32;;;;;;;29.72;13.88;;;;;;;3.75;100.00;96969.20;4071453;87;28602;-73
2021/01/24 09:49:34;;;;;;;20.80;11.03;;;;;;;3.73;100.00;96977.91;3985800;88;28583;-74
2021/01/24 09:55:38;;;;;;;20.32;10.10;;;;;;;3.54;100.00;96989.77;4046687;87;28554;-77
2021/01/24 10:01:48;;;;;;;18.67;9.30;;;;;;;3.66;100.00;96985.75;4051186;87;28562;-77
2021/01/24 10:07:50;;;;;;;19.57;8.85;;;;;;;3.61;100.00;97000.56;3974246;88;29027;-76
2021/01/24 10:13:52;;;;;;;18.77;8.75;;;;;;;3.46;100.00;96993.09;3969688;88;28570;-78
2021/01/24 10:19:55;;;;;;;17.27;8.40;;;;;;;3.80;100.00;96996.41;4045985;87;28580;-81
2021/01/24 10:25:57;;;;;;;15.53;7.90;;;;;;;3.78;100.00;96993.69;3977258;88;28674;-77
2021/01/24 10:31:59;;;;;;;17.95;8.83;;;;;;;3.78;100.00;97000.34;4131769;85;28577;-80
2021/01/24 10:38:01;;;;;;;15.85;7.55;;;;;;;3.86;100.00;97014.58;4125633;85;28619;-75
2021/01/24 10:44:04;;;;;;;21.75;9.03;;;;;;;3.88;100.00;97009.29;4129995;85;28659;-80
2021/01/24 10:50:10;;;;;;;22.15;10.00;;;;;;;3.83;100.00;97015.86;4134194;85;28589;-76
2021/01/24 10:56:12;;;;;;;25.37;11.10;;;;;;;3.81;100.00;97025.92;4056670;86;28607;-74
2021/01/24 11:02:14;;;;;;;27.65;12.30;;;;;;;3.84;100.00;97019.30;4136688;85;28591;-75
2021/01/24 11:08:16;;;;;;;31.33;13.22;;;;;;;3.85;100.00;97026.23;4130827;85;28644;-74
2021/01/24 11:14:19;;;;;;;33.38;14.83;;;;;;;3.90;100.00;97044.95;4126829;85;28672;-73
2021/01/24 11:20:21;;;;;;;32.60;13.70;;;;;;;3.81;100.00;97060.48;4125980;85;28607;-75
2021/01/24 11:26:23;;;;;;;35.35;15.45;;;;;;;3.73;100.00;97058.19;4124052;84;28594;-75
2021/01/24 11:32:25;;;;;;;39.00;15.93;;;;;;;3.55;100.00;97062.61;4063281;86;29037;-75
2021/01/24 11:38:29;;;;;;;33.53;14.00;;;;;;;3.65;100.00;97065.20;4055276;86;28581;-76
2021/01/24 11:44:31;;;;;;;32.73;14.38;;;;;;;3.68;100.00;97054.91;4067318;86;28614;-75
2021/01/24 11:50:33;;;;;;;32.15;14.45;;;;;;;3.85;100.00;97062.94;4092667;86;28547;-75
2021/01/24 11:56:35;;;;;;;21.97;9.95;;;;;;;3.63;100.00;97056.12;4061231;86;28571;-75
2021/01/24 12:02:38;;;;;;;27.62;12.37;;;;;;;3.92;100.00;97066.79;4075587;86;28693;-76
2021/01/24 12:08:40;;;;;;;26.10;11.40;;;;;;;4.21;100.00;97070.79;4071397;86;28622;-77
2021/01/24 12:14:42;;;;;;;25.15;11.05;;;;;;;4.21;100.00;97081.94;4058527;86;28560;-74
2021/01/24 12:20:44;;;;;;;26.85;10.75;;;;;;;4.14;100.00;97094.88;4068204;86;28592;-74
2021/01/24 12:26:46;;;;;;;22.42;9.38;;;;;;;4.17;100.00;97097.05;4074339;85;28746;-75
2021/01/24 12:32:49;;;;;;;19.32;9.30;;;;;;;3.90;100.00;97098.13;4116148;85;28649;-76
2021/01/24 12:38:51;;;;;;;26.23;11.70;;;;;;;3.98;100.00;97088.97;4108814;85;28559;-75
2021/01/24 12:44:53;;;;;;;25.25;11.57;;;;;;;3.95;100.00;97102.20;4117840;85;28947;-75
2021/01/24 12:50:56;;;;;;;21.07;9.80;;;;;;;3.70;100.00;97101.20;4110092;85;28634;-75
2021/01/24 12:56:59;;;;;;;23.95;10.93;;;;;;;3.61;100.00;97104.72;4111474;85;28566;-75
2021/01/24 13:03:01;;;;;;;24.07;9.80;;;;;;;3.39;100.00;97100.01;3984846;88;28584;-75
2021/01/24 13:09:04;;;;;;;20.97;9.15;;;;;;;3.22;100.00;97109.20;4113864;85;28591;-74
2021/01/24 13:15:07;;;;;;;23.25;10.82;;;;;;;3.18;100.00;97100.09;4046545;86;28633;-76
2021/01/24 13:21:10;;;;;;;19.90;9.13;;;;;;;3.29;100.00;97087.32;4123078;85;28622;-77
2021/01/24 13:27:12;;;;;;;19.12;9.50;;;;;;;3.39;100.00;97099.22;4110133;85;29135;-77
2021/01/24 13:33:14;;;;;;;19.23;8.95;;;;;;;3.45;100.00;97104.41;4120818;85;28632;-77
2021/01/24 13:39:17;;;;;;;18.15;9.30;;;;;;;3.52;100.00;97116.23;4124124;85;28561;-77
2021/01/24 13:45:19;;;;;;;18.20;9.43;;;;;;;3.54;100.00;97128.76;4124537;85;28595;-77
2021/01/24 13:51:21;;;;;;;17.85;9.18;;;;;;;3.45;100.00;97135.47;4124915;85;28567;-76
2021/01/24 13:57:23;;;;;;;21.23;10.38;;;;;;;3.36;100.00;97129.70;4124317;85;28573;-77
2021/01/24 14:03:25;;;;;;;20.45;9.40;;;;;;;3.31;100.00;97136.21;4124725;85;28593;-76
2021/01/24 14:09:27;;;;;;;18.95;9.83;;;;;;;3.29;100.00;97137.79;4124767;85;28576;-77
2021/01/24 14:15:30;;;;;;;18.98;9.20;;;;;;;3.43;100.00;97145.52;4124456;85;28611;-77
2021/01/24 14:21:32;;;;;;;19.37;9.28;;;;;;;3.48;100.00;97154.41;4124754;85;28569;-77
2021/01/24 14:27:34;;;;;;;20.35;9.93;;;;;;;3.60;100.00;97161.06;4129172;84;28644;-76
2021/01/24 14:33:37;;;;;;;20.20;9.98;;;;;;;3.53;100.00;97164.86;4052179;86;28602;-77
2021/01/24 14:39:39;;;;;;;19.48;9.65;;;;;;;3.51;100.00;97171.75;4058211;86;28608;-77
2021/01/24 14:45:41;;;;;;;18.00;9.45;;;;;;;3.58;100.00;97183.05;4054367;86;28560;-77
2021/01/24 14:51:43;;;;;;;15.68;8.40;;;;;;;3.62;100.00;97188.20;4061732;86;28668;-77
2021/01/24 14:57:45;;;;;;;23.70;10.00;;;;;;;3.69;100.00;97197.39;4053057;87;28574;-76
2021/01/24 15:03:47;;;;;;;21.75;10.08;;;;;;;3.75;100.00;97201.79;4050719;87;28572;-77
2021/01/24 15:09:50;;;;;;;23.85;11.15;;;;;;;3.65;100.00;97207.38;4055610;86;28643;-76
2021/01/24 15:15:52;;;;;;;24.72;12.53;;;;;;;3.66;100.00;97212.98;3984708;88;28684;-77
2021/01/24 15:21:54;;;;;;;26.45;11.40;;;;;;;3.72;100.00;97220.05;3984492;88;28567;-77
2021/01/24 15:27:56;;;;;;;20.65;11.28;;;;;;;3.49;100.00;97237.06;4050286;86;28599;-77
2021/01/24 15:33:58;;;;;;;21.30;10.75;;;;;;;3.66;100.00;97248.87;4068513;85;28568;-77
2021/01/24 15:40:00;;;;;;;23.27;12.25;;;;;;;3.72;100.00;97251.94;4049881;86;28647;-77
2021/01/24 15:46:02;;;;;;;19.60;9.43;;;;;;;3.74;100.00;97257.30;3982162;88;28595;-78
2021/01/24 15:52:04;;;;;;;15.93;7.70;;;;;;;3.78;100.00;97255.53;4042058;86;28607;-77
2021/01/24 15:58:07;;;;;;;13.05;6.50;;;;;;;3.88;100.00;97267.19;4049510;86;28556;-75
2021/01/24 16:04:10;;;;;;;11.88;5.95;;;;;;;3.82;100.00;97278.77;4050471;86;28598;-75
2021/01/24 16:10:12;;;;;;;11.12;5.25;;;;;;;3.73;100.00;97281.47;4055602;86;28581;-73
2021/01/24 16:16:15;;;;;;;9.98;5.30;;;;;;;3.57;100.00;97303.67;4077201;86;28640;-72
2021/01/24 16:22:17;;;;;;;8.15;4.50;;;;;;;3.43;100.00;97287.13;4057036;86;28560;-72
2021/01/24 16:28:20;;;;;;;7.12;3.47;;;;;;;3.18;100.00;97274.04;4053279;86;28607;-71
2021/01/24 16:34:22;;;;;;;7.60;4.17;;;;;;;3.02;100.00;97272.80;4057222;88;28648;-72
2021/01/24 16:40:24;;;;;;;9.30;4.42;;;;;;;2.96;100.00;97270.53;4127453;85;28587;-72
2021/01/24 16:46:28;;;;;;;6.87;4.00;;;;;;;2.79;100.00;97277.81;4077236;86;28566;-73
2021/01/24 16:52:30;;;;;;;8.28;4.03;;;;;;;2.77;100.00;97287.85;4125210;86;28620;-73
2021/01/24 16:58:33;;;;;;;8.53;4.03;;;;;;;2.74;100.00;97276.88;4123749;85;28694;-75
2021/01/24 17:04:35;;;;;;;7.87;4.03;;;;;;;2.75;100.00;97277.16;4139225;85;28623;-75
2021/01/24 17:10:37;;;;;;;9.60;4.65;;;;;;;2.82;100.00;97287.69;4130982;85;28597;-75
2021/01/24 17:16:40;;;;;;;8.63;4.42;;;;;;;2.91;100.00;97297.76;4123102;84;28662;-74
2021/01/24 17:22:42;;;;;;;8.53;4.35;;;;;;;2.78;100.00;97278.03;4060775;86;28611;-75
2021/01/24 17:28:44;;;;;;;8.08;4.47;;;;;;;2.65;100.00;97285.13;4049378;86;28618;-75
2021/01/24 17:34:46;;;;;;;9.45;4.65;;;;;;;2.54;100.00;97287.71;4134903;85;28577;-76
2021/01/24 17:40:49;;;;;;;10.53;5.22;;;;;;;2.46;100.00;97292.30;4146818;85;28620;-75
2021/01/24 17:46:51;;;;;;;12.35;5.83;;;;;;;2.76;100.00;97296.03;4059063;86;28580;-76
2021/01/24 17:52:55;;;;;;;13.03;6.33;;;;;;;2.89;100.00;97292.41;4063536;86;28629;-75
2021/01/24 17:58:57;;;;;;;14.78;7.05;;;;;;;2.89;100.00;97297.71;4047592;86;28614;-76
2021/01/24 18:04:59;;;;;;;17.12;7.45;;;;;;;2.78;100.00;97304.57;4049515;86;28661;-74
2021/01/24 18:11:01;;;;;;;14.93;7.37;;;;;;;2.82;100.00;97300.45;4075578;86;28648;-75
2021/01/24 18:17:04;;;;;;;15.40;7.37;;;;;;;2.83;100.00;97304.73;4126426;85;28558;-76
2021/01/24 18:23:07;;;;;;;13.35;6.90;;;;;;;2.71;100.00;97304.66;4149784;84;28628;-75
2021/01/24 18:29:09;;;;;;;15.63;7.53;;;;;;;2.64;100.00;97314.53;4146785;84;28584;-75
2021/01/24 18:35:12;;;;;;;18.15;8.75;;;;;;;2.47;100.00;97309.84;4132772;85;28623;-76
2021/01/24 18:41:14;;;;;;;19.48;8.73;;;;;;;2.37;100.00;97314.31;4133703;85;28604;-75
2021/01/24 18:47:18;;;;;;;19.27;8.90;;;;;;;2.14;100.00;97322.94;4129313;85;28679;-77
2021/01/24 18:53:23;;;;;;;20.70;9.73;;;;;;;2.01;100.00;97317.23;4125345;85;28547;-76
2021/01/24 18:59:25;;;;;;;21.25;10.23;;;;;;;1.92;100.00;97310.05;4148326;85;28635;-76
2021/01/24 19:05:27;;;;;;;21.75;9.98;;;;;;;1.96;100.00;97314.41;4125919;85;28571;-76
2021/01/24 19:11:29;;;;;;;20.82;9.38;;;;;;;1.85;100.00;97308.50;4125597;85;28652;-76
2021/01/24 19:17:31;;;;;;;24.20;10.38;;;;;;;1.66;100.00;97325.66;4072427;86;28614;-76
2021/01/24 19:23:33;;;;;;;25.32;10.98;;;;;;;1.69;100.00;97330.55;4050653;86;28568;-75
2021/01/24 19:29:36;;;;;;;20.82;9.83;;;;;;;1.61;100.00;97336.11;4049433;86;28634;-75
2021/01/24 19:35:38;;;;;;;22.85;9.55;;;;;;;1.54;100.00;97337.48;4064392;86;28642;-76
2021/01/24 19:41:40;;;;;;;20.35;9.50;;;;;;;1.65;100.00;97339.44;4125849;85;28575;-80
2021/01/24 19:47:43;;;;;;;17.77;8.58;;;;;;;1.77;100.00;97344.04;4122644;85;28611;-77
2021/01/24 19:53:46;;;;;;;18.60;7.35;;;;;;;1.77;100.00;97336.09;4122918;85;28666;-78
2021/01/24 19:59:50;;;;;;;13.65;6.50;;;;;;;1.87;100.00;97327.14;4124432;85;28608;-78
2021/01/24 20:05:52;;;;;;;14.80;6.45;;;;;;;1.80;100.00;97328.52;4051897;86;28663;-78
2021/01/24 20:11:55;;;;;;;12.63;6.42;;;;;;;1.80;100.00;97323.73;4053735;86;28564;-78
2021/01/24 20:17:56;;;;;;;15.90;7.28;;;;;;;1.62;100.00;97316.03;4055071;87;28575;-79
2021/01/24 20:24:03;;;;;;;12.85;6.55;;;;;;;1.63;100.00;97318.98;4053431;87;28560;-78
2021/01/24 20:30:05;;;;;;;15.03;6.87;;;;;;;1.64;100.00;97321.10;4053366;86;43938;-79
2021/01/24 20:36:08;;;;;;;17.95;7.95;;;;;;;1.51;100.00;97328.13;4057346;85;28690;-78
2021/01/24 20:42:10;;;;;;;18.42;7.60;;;;;;;1.54;100.00;97330.86;4063720;86;28613;-79
2021/01/24 20:48:12;;;;;;;16.90;7.40;;;;;;;1.60;100.00;97341.91;4051123;86;28570;-79
2021/01/24 20:54:15;;;;;;;13.85;6.72;;;;;;;1.68;100.00;97347.48;4053981;86;43993;-78
2021/01/24 21:00:19;;;;;;;15.15;6.72;;;;;;;1.59;100.00;97345.59;4056118;86;28632;-78
2021/01/24 21:06:21;;;;;;;13.83;6.22;;;;;;;1.57;100.00;97343.67;3989597;88;28618;-77
2021/01/24 21:12:23;;;;;;;13.88;6.45;;;;;;;1.69;100.00;97346.45;4056418;86;28564;-78
2021/01/24 21:18:25;;;;;;;17.62;7.08;;;;;;;1.79;100.00;97341.98;4051788;86;28622;-77
2021/01/24 21:24:28;;;;;;;9.28;4.80;;;;;;;1.83;100.00;97339.22;4063498;85;28560;-77
2021/01/24 21:30:31;;;;;;;12.23;5.20;;;;;;;1.90;100.00;97330.67;4053144;86;28588;-75
2021/01/24 21:36:33;;;;;;;10.10;4.67;;;;;;;1.93;100.00;97323.63;4056843;86;28584;-76
2021/01/24 21:42:35;;;;;;;10.28;4.70;;;;;;;1.87;100.00;97311.23;3990985;88;28582;-77
2021/01/24 21:48:37;;;;;;;10.75;4.87;;;;;;;1.79;100.00;97310.18;4055755;86;28670;-76
2021/01/24 21:54:39;;;;;;;9.50;4.78;;;;;;;1.72;100.00;97306.27;3979787;88;28950;-77
2021/01/24 22:00:41;;;;;;;10.20;4.85;;;;;;;1.66;100.00;97305.30;4125954;85;28559;-77
2021/01/24 22:06:44;;;;;;;10.45;4.58;;;;;;;1.50;100.00;97293.39;4133249;84;28612;-79
2021/01/24 22:12:45;;;;;;;11.35;4.95;;;;;;;1.39;100.00;97284.30;4129539;85;28572;-81
2021/01/24 22:18:48;;;;;;;10.20;5.15;;;;;;;1.45;100.00;97289.77;4137648;84;28622;-78
2021/01/24 22:24:50;;;;;;;12.60;5.80;;;;;;;1.48;100.00;97275.59;4130353;85;28614;-77
2021/01/24 22:30:53;;;;;;;14.60;5.72;;;;;;;1.48;100.00;97270.30;4122459;85;28564;-77
2021/01/24 22:36:57;;;;;;;13.93;5.95;;;;;;;1.41;100.00;97279.30;4118522;84;28640;-78
2021/01/24 22:43:00;;;;;;;15.00;6.60;;;;;;;1.51;100.00;97270.35;4111460;85;28585;-80
2021/01/24 22:49:02;;;;;;;13.53;6.12;;;;;;;1.42;100.00;97271.67;4103697;85;28675;-79
2021/01/24 22:55:05;;;;;;;15.43;6.17;;;;;;;1.36;100.00;97281.29;4000606;88;28567;-79
2021/01/24 23:01:08;;;;;;;11.30;5.35;;;;;;;1.33;100.00;97279.87;3989542;88;28649;-77
2021/01/24 23:07:10;;;;;;;11.78;5.15;;;;;;;1.28;100.00;97286.84;4049282;86;28619;-76
2021/01/24 23:13:12;;;;;;;13.75;5.25;;;;;;;1.25;100.00;97292.87;4041133;86;28622;-78
2021/01/24 23:19:14;;;;;;;10.82;5.20;;;;;;;1.18;100.00;97294.73;4118723;85;28588;-78
2021/01/24 23:25:16;;;;;;;14.45;5.20;;;;;;;1.04;100.00;97302.44;4050381;86;28567;-77
2021/01/24 23:31:18;;;;;;;12.20;5.08;;;;;;;0.97;100.00;97311.74;4054732;86;28607;-77
2021/01/24 23:37:21;;;;;;;10.18;4.72;;;;;;;1.04;100.00;97313.03;4059506;86;28699;-77
2021/01/24 23:43:23;;;;;;;12.65;5.75;;;;;;;1.02;100.00;97319.05;4124143;85;28670;-78
2021/01/24 23:49:26;;;;;;;11.43;5.25;;;;;;;0.96;100.00;97327.33;4124969;85;28655;-78
2021/01/24 23:55:28;;;;;;;14.00;5.78;;;;;;;1.03;100.00;97315.38;4125893;85;28671;-78
